EGCC/MAN METAR and TAF weather

Enter ICAO airport designator
Station Type Date Time Source
EGCC METAR 2019/09/21 21:20 UTC NOAA

EGCC 212120Z AUTO VRB04KT 9999 NCD 18/09 Q1006 NOSIG


Station Type Date Time Source
EGCC Decoded METAR 2019/09/21 21:20 UTC NOAA

Manchester Airport, United Kingdom (EGCC) 53-21N 002-17W 0M
Sep 21, 2019 - 05:20 PM EDT / 2019.09.21 2120 UTC
Wind: Variable at 5 MPH (4 KT):0
Visibility: greater than 7 mile(s):0
Temperature: 64 F (18 C)
Dew Point: 48 F (9 C)
Relative Humidity: 55%
Pressure (altimeter): 29.71 in. Hg (1006 hPa)
ob: EGCC 212120Z AUTO VRB04KT 9999 NCD 18/09 Q1006 NOSIG
cycle: 21

Station Type Date Time Source
EGCC TAF 2019/09/21 18:06 UTC NOAA

TAF EGCC 211704Z 2118/2224 12009KT CAVOK PROB30
TEMPO 2201/2208 4000 +SHRA BKN045CB
TEMPO 2212/2218 7000 RA BKN025 PROB40
TEMPO 2212/2217 3000 +SHRA BKN014 BKN030CB
BECMG 2214/2217 20010KT PROB30
TEMPO 2217/2224 BKN014

Example: see airport list